Time;durP1;ratioP1;P1;durP2;ratioP2;P2;SDS_P1;SDS_P2;PMS_P1;PMS_P2;Temp;Humidity;BMP_temperature;BMP_pressure;BME280_temperature;BME280_humidity;BME280_pressure;Samples;Min_cycle;Max_cycle;Signal;HPM_P1;HPM_P2
2022/05/07 00:01:35;;;;;;;9.93;5.70;;;;;;;15.74;73.59;99148.75;4485291;31;20480;-71
2022/05/07 00:04:03;;;;;;;9.73;6.45;;;;;;;15.74;73.68;99146.09;4485375;31;20466;-72
2022/05/07 00:06:30;;;;;;;14.70;6.60;;;;;;;15.66;74.47;99143.47;4485166;32;20080;-71
2022/05/07 00:08:57;;;;;;;9.48;6.90;;;;;;;15.65;74.98;99146.25;4485041;31;20092;-72
2022/05/07 00:11:25;;;;;;;8.50;6.32;;;;;;;15.54;75.13;99145.56;4485180;32;20097;-71
2022/05/07 00:13:52;;;;;;;9.90;6.97;;;;;;;15.48;75.56;99151.47;4485172;31;20484;-71
2022/05/07 00:19:05;;;;;;;13.00;6.25;;;;;;;15.51;75.25;99155.63;4484904;32;20497;-72
2022/05/07 00:21:32;;;;;;;8.05;6.65;;;;;;;15.46;74.69;99152.63;4485133;31;20088;-72
2022/05/07 00:24:02;;;;;;;14.07;6.95;;;;;;;15.42;75.33;99152.12;4485080;31;20097;-71
2022/05/07 00:26:29;;;;;;;12.18;6.47;;;;;;;15.44;74.52;99148.34;4485290;31;20115;-71
2022/05/07 00:28:56;;;;;;;12.35;6.35;;;;;;;15.42;74.53;99152.12;4484938;31;20151;-71
2022/05/07 00:31:23;;;;;;;9.65;6.50;;;;;;;15.40;74.16;99151.47;4484880;31;20119;-71
2022/05/07 00:33:51;;;;;;;10.70;6.22;;;;;;;15.44;74.35;99150.97;4484971;31;20188;-71
2022/05/07 00:36:20;;;;;;;8.80;6.10;;;;;;;15.41;74.05;99151.31;4485147;31;20112;-71
2022/05/07 00:38:47;;;;;;;10.23;7.10;;;;;;;15.33;74.77;99153.88;4484849;32;20080;-71
2022/05/07 00:41:14;;;;;;;9.65;6.45;;;;;;;15.28;74.95;99150.91;4484977;32;20201;-71
2022/05/07 00:43:41;;;;;;;11.40;6.97;;;;;;;15.36;74.51;99158.84;4484898;32;20112;-71
2022/05/07 00:46:09;;;;;;;12.32;7.00;;;;;;;15.26;75.15;99152.88;4484628;31;20099;-71
2022/05/07 00:48:38;;;;;;;10.27;7.03;;;;;;;15.24;75.02;99149.56;4483568;32;20540;-71
2022/05/07 00:53:51;;;;;;;9.00;6.82;;;;;;;15.22;75.14;99146.25;4484879;32;20096;-71
2022/05/07 00:56:19;;;;;;;10.52;6.47;;;;;;;15.15;75.07;99150.50;4483416;32;20109;-71
2022/05/07 00:58:46;;;;;;;11.25;6.57;;;;;;;15.09;75.37;99146.69;4484809;31;20096;-71
2022/05/07 01:01:14;;;;;;;12.40;6.95;;;;;;;14.99;75.84;99148.59;4484677;31;20163;-71
2022/05/07 01:03:41;;;;;;;9.40;6.62;;;;;;;14.96;76.00;99141.84;4484019;32;20139;-71
2022/05/07 01:06:09;;;;;;;13.85;6.43;;;;;;;14.97;76.28;99138.19;4484692;31;20122;-71
2022/05/07 01:08:37;;;;;;;10.98;6.55;;;;;;;14.95;76.42;99142.00;4484736;32;20165;-71
2022/05/07 01:11:05;;;;;;;8.32;6.62;;;;;;;14.92;76.43;99140.50;4484734;32;20437;-71
2022/05/07 01:13:32;;;;;;;12.82;6.68;;;;;;;14.77;76.79;99152.59;4484989;31;20119;-71
2022/05/07 01:16:00;;;;;;;10.20;7.35;;;;;;;14.77;77.01;99145.50;4483191;32;20119;-71
2022/05/07 01:18:28;;;;;;;12.80;7.05;;;;;;;14.84;76.71;99141.28;4484537;32;20591;-71
2022/05/07 01:20:57;;;;;;;8.48;6.75;;;;;;;14.70;77.28;99142.66;4484600;31;20117;-71
2022/05/07 01:23:27;;;;;;;8.10;6.25;;;;;;;14.65;77.16;99144.09;4484464;32;20160;-71
2022/05/07 01:25:59;;;;;;;10.82;6.90;;;;;;;14.75;77.10;99154.53;4484702;31;20123;-71
2022/05/07 01:28:28;;;;;;;9.63;6.55;;;;;;;14.71;77.25;99146.13;4484521;32;20085;-71
2022/05/07 01:30:56;;;;;;;12.55;7.03;;;;;;;14.72;77.30;99140.69;4483366;32;20093;-71
2022/05/07 01:33:23;;;;;;;9.13;6.40;;;;;;;14.61;77.39;99140.97;4484454;31;20139;-71
2022/05/07 01:35:50;;;;;;;10.95;7.82;;;;;;;14.58;77.93;99135.97;4484409;32;20088;-71
2022/05/07 01:38:18;;;;;;;8.95;6.05;;;;;;;14.50;78.29;99141.16;4484295;31;20080;-71
2022/05/07 01:40:46;;;;;;;13.25;6.87;;;;;;;14.41;78.68;99137.63;4484544;32;20104;-71
2022/05/07 01:43:14;;;;;;;8.45;6.30;;;;;;;14.40;78.28;99140.41;4482911;32;20112;-71
2022/05/07 01:45:41;;;;;;;9.45;6.55;;;;;;;14.44;78.21;99136.50;4484130;32;20100;-71
2022/05/07 01:48:11;;;;;;;11.48;6.82;;;;;;;14.45;78.41;99138.97;4484120;31;20092;-71
2022/05/07 01:50:41;;;;;;;11.93;6.18;;;;;;;14.43;78.26;99140.94;4484345;32;20137;-71
2022/05/07 01:53:11;;;;;;;8.98;5.95;;;;;;;14.43;78.24;99134.84;4484007;31;20104;-71
2022/05/07 01:55:41;;;;;;;7.57;6.05;;;;;;;14.40;78.25;99137.78;4484421;31;20119;-71
2022/05/07 01:58:08;;;;;;;9.57;6.18;;;;;;;14.30;78.51;99129.97;4483784;31;20175;-71
2022/05/07 02:00:36;;;;;;;11.80;6.40;;;;;;;14.36;78.36;99132.81;4484317;32;20108;-71
2022/05/07 02:03:03;;;;;;;13.70;6.45;;;;;;;14.26;78.29;99132.09;4483787;31;20251;-71
2022/05/07 02:05:30;;;;;;;8.77;6.25;;;;;;;14.16;78.74;99134.78;4483933;31;20100;-71
2022/05/07 02:07:58;;;;;;;7.30;5.90;;;;;;;14.13;78.78;99129.00;4484065;31;20163;-71
2022/05/07 02:10:25;;;;;;;10.30;6.03;;;;;;;14.15;78.89;99132.31;4483770;31;20097;-71
2022/05/07 02:12:53;;;;;;;7.60;5.47;;;;;;;14.18;78.39;99134.63;4484093;31;20447;-71
2022/05/07 02:15:22;;;;;;;9.27;5.82;;;;;;;14.10;78.83;99129.31;4486013;31;20115;-71
2022/05/07 02:17:50;;;;;;;7.68;5.60;;;;;;;14.10;78.37;99126.69;4485766;31;20087;-71
2022/05/07 02:20:17;;;;;;;6.75;5.22;;;;;;;14.09;78.56;99135.53;4486033;32;20072;-71
2022/05/07 02:22:44;;;;;;;8.52;5.93;;;;;;;14.03;79.00;99134.34;4485835;31;20092;-71
2022/05/07 02:25:12;;;;;;;8.65;6.37;;;;;;;14.08;78.60;99128.62;4486077;32;20508;-71
2022/05/07 02:27:41;;;;;;;13.90;6.90;;;;;;;14.01;79.08;99120.50;4485833;31;20425;-71
2022/05/07 02:30:09;;;;;;;9.35;5.53;;;;;;;14.05;78.73;99123.66;4485925;32;20106;-71
2022/05/07 02:32:39;;;;;;;10.25;5.90;;;;;;;14.02;78.74;99127.44;4486042;31;20156;-71
2022/05/07 02:35:08;;;;;;;10.82;6.03;;;;;;;13.96;78.72;99128.00;4486095;31;20435;-71
2022/05/07 02:37:36;;;;;;;9.35;5.97;;;;;;;13.99;78.92;99125.91;4486028;31;20549;-71
2022/05/07 02:40:03;;;;;;;10.57;6.12;;;;;;;13.99;78.71;99128.56;4485742;31;20096;-71
2022/05/07 02:42:36;;;;;;;8.45;5.65;;;;;;;13.99;78.83;99128.56;4485917;31;20092;-71
2022/05/07 02:45:06;;;;;;;7.32;4.97;;;;;;;13.95;78.99;99127.19;4485971;31;20093;-71
2022/05/07 02:47:34;;;;;;;7.25;5.50;;;;;;;13.99;78.85;99127.72;4485491;31;20138;-71
2022/05/07 02:50:03;;;;;;;11.65;5.93;;;;;;;13.94;79.22;99127.34;4485968;31;20077;-71
2022/05/07 02:52:33;;;;;;;8.40;6.03;;;;;;;13.97;78.97;99127.03;4485610;31;20432;-71
2022/05/07 02:55:02;;;;;;;7.45;5.87;;;;;;;13.83;79.75;99129.19;4485853;32;20141;-71
2022/05/07 02:57:29;;;;;;;7.95;5.18;;;;;;;13.83;79.50;99128.38;4485812;31;20152;-71
2022/05/07 02:59:56;;;;;;;8.70;5.53;;;;;;;13.86;79.69;99127.28;4485737;31;20097;-71
2022/05/07 03:02:24;;;;;;;8.70;5.93;;;;;;;13.88;79.40;99125.31;4486055;31;20114;-71
2022/05/07 03:04:53;;;;;;;7.28;5.32;;;;;;;13.81;79.41;99130.34;4484703;32;20187;-71
2022/05/07 03:07:20;;;;;;;10.82;5.72;;;;;;;13.81;79.63;99127.72;4485645;31;20168;-71
2022/05/07 03:09:48;;;;;;;7.57;5.28;;;;;;;13.82;79.10;99129.34;4485797;31;20096;-71
2022/05/07 03:12:16;;;;;;;9.02;5.32;;;;;;;13.70;79.18;99127.91;4485520;31;20080;-71
2022/05/07 03:14:44;;;;;;;9.20;4.97;;;;;;;13.75;79.35;99131.75;4485825;32;20123;-71
2022/05/07 03:17:11;;;;;;;6.93;5.43;;;;;;;13.73;78.85;99131.09;4485201;32;20111;-71
2022/05/07 03:19:38;;;;;;;7.80;5.50;;;;;;;13.68;79.41;99132.50;4485253;31;20084;-71
2022/05/07 03:22:05;;;;;;;7.62;5.18;;;;;;;13.65;79.81;99131.00;4485458;32;20157;-71
2022/05/07 03:24:37;;;;;;;7.00;5.32;;;;;;;13.69;79.34;99131.50;4485321;31;20528;-71
2022/05/07 03:27:05;;;;;;;6.00;4.72;;;;;;;13.71;79.43;99133.03;4485731;31;20102;-71
2022/05/07 03:29:33;;;;;;;8.43;5.25;;;;;;;13.66;79.53;99136.09;4485760;31;20088;-71
2022/05/07 03:32:01;;;;;;;6.85;5.22;;;;;;;13.65;79.53;99131.00;4485540;31;20135;-71
2022/05/07 03:34:28;;;;;;;6.62;4.87;;;;;;;13.64;79.61;99132.81;4485403;32;20164;-71
2022/05/07 03:36:55;;;;;;;6.05;5.10;;;;;;;13.61;80.00;99132.25;4485351;31;20096;-71
2022/05/07 03:39:23;;;;;;;7.75;5.05;;;;;;;13.57;80.05;99123.00;4485525;31;20106;-71
2022/05/07 03:41:51;;;;;;;7.28;5.22;;;;;;;13.59;80.10;99136.84;4485637;31;20104;-71
2022/05/07 03:44:20;;;;;;;7.35;5.57;;;;;;;13.47;80.46;99131.81;4485563;31;20558;-71
2022/05/07 03:46:49;;;;;;;10.00;5.72;;;;;;;13.46;80.56;99137.22;4485291;31;20114;-71
2022/05/07 03:49:17;;;;;;;9.35;5.28;;;;;;;13.55;80.44;99131.06;4485435;31;20088;-71
2022/05/07 03:54:31;;;;;;;8.02;5.35;;;;;;;13.54;80.54;99145.19;4485499;31;20089;-71
2022/05/07 03:56:59;;;;;;;8.52;5.50;;;;;;;13.53;80.86;99137.44;4485466;31;20524;-71
2022/05/07 03:59:27;;;;;;;8.20;5.90;;;;;;;13.55;81.12;99136.31;4485549;31;20092;-71
2022/05/07 04:01:54;;;;;;;8.73;6.55;;;;;;;13.66;81.25;99145.81;4485280;32;20096;-71
2022/05/07 04:04:23;;;;;;;7.93;5.55;;;;;;;13.64;81.10;99145.13;4485556;32;20155;-71
2022/05/07 04:06:50;;;;;;;8.50;5.62;;;;;;;13.63;81.36;99149.56;4485368;31;20130;-71
2022/05/07 04:09:17;;;;;;;10.55;6.37;;;;;;;13.63;81.37;99146.13;4485129;31;20525;-71
2022/05/07 04:11:45;;;;;;;12.23;6.55;;;;;;;13.62;81.43;99145.28;4485130;31;20533;-71
2022/05/07 04:14:13;;;;;;;7.45;6.00;;;;;;;13.66;81.47;99151.09;4483997;32;20477;-71
2022/05/07 04:16:41;;;;;;;8.10;6.22;;;;;;;13.64;81.62;99148.59;4485076;31;20430;-72
2022/05/07 04:19:11;;;;;;;8.73;6.43;;;;;;;13.67;81.28;99147.47;4484836;31;20543;-71
2022/05/07 04:21:39;;;;;;;7.95;6.53;;;;;;;13.66;81.39;99149.28;4485344;31;20100;-71
2022/05/07 04:24:07;;;;;;;8.15;5.95;;;;;;;13.66;81.42;99151.09;4485423;31;20096;-71
2022/05/07 04:26:35;;;;;;;9.15;6.05;;;;;;;13.64;81.66;99148.59;4485484;31;20092;-71
2022/05/07 04:29:03;;;;;;;8.18;6.05;;;;;;;13.68;81.66;99143.03;4485428;31;20088;-71
2022/05/07 04:31:31;;;;;;;9.77;6.05;;;;;;;13.67;81.46;99155.34;4485353;31;20454;-71
2022/05/07 04:34:02;;;;;;;7.95;5.75;;;;;;;13.62;81.72;99153.16;4485214;32;20137;-71
2022/05/07 04:36:30;;;;;;;8.00;6.07;;;;;;;13.63;82.01;99152.19;4484504;31;20100;-71
2022/05/07 04:38:58;;;;;;;9.43;5.95;;;;;;;13.71;81.55;99145.38;4484695;31;20513;-71
2022/05/07 04:41:25;;;;;;;10.70;6.93;;;;;;;13.70;81.38;99151.59;4485035;32;20125;-71
2022/05/07 04:43:54;;;;;;;8.50;6.12;;;;;;;13.70;81.55;99154.25;4485044;31;20092;-71
2022/05/07 04:46:21;;;;;;;7.30;6.25;;;;;;;13.76;81.21;99157.13;4484535;31;20134;-71
2022/05/07 04:48:49;;;;;;;9.02;6.25;;;;;;;13.75;81.10;99159.91;4485181;31;20538;-71
2022/05/07 04:51:16;;;;;;;8.75;5.78;;;;;;;13.83;81.12;99157.34;4484829;32;20112;-71
2022/05/07 04:54:05;;;;;;;14.25;6.62;;;;;;;13.94;80.32;99162.41;4484960;32;20119;-71
2022/05/07 04:56:32;;;;;;;8.05;5.62;;;;;;;14.02;80.00;99159.88;4484725;31;20540;-71
2022/05/07 04:59:00;;;;;;;8.40;5.97;;;;;;;14.03;79.97;99168.59;4485003;31;20454;-71
2022/05/07 05:01:29;;;;;;;6.60;5.35;;;;;;;14.07;80.10;99163.84;4485012;31;20390;-71
2022/05/07 05:03:57;;;;;;;8.60;6.00;;;;;;;14.13;79.79;99163.25;4483391;32;20495;-71
2022/05/07 05:06:26;;;;;;;9.32;6.10;;;;;;;14.22;79.33;99161.50;4485038;31;20147;-71
2022/05/07 05:08:54;;;;;;;9.32;6.15;;;;;;;14.31;78.94;99165.91;4484638;31;20546;-71
2022/05/07 05:11:21;;;;;;;7.50;5.82;;;;;;;14.29;78.98;99166.06;4484959;31;20399;-71
2022/05/07 05:13:49;;;;;;;9.52;6.37;;;;;;;14.33;78.66;99170.00;4484878;31;20093;-71
2022/05/07 05:16:17;;;;;;;8.60;6.18;;;;;;;14.49;78.21;99165.88;4484640;31;20084;-71
2022/05/07 05:18:45;;;;;;;9.13;5.82;;;;;;;14.54;78.23;99169.69;4484571;31;20088;-71
2022/05/07 05:21:12;;;;;;;8.50;6.12;;;;;;;14.72;77.27;99172.34;4484439;31;20115;-71
2022/05/07 05:23:41;;;;;;;7.40;5.87;;;;;;;14.73;77.43;99168.72;4484761;31;20477;-71
2022/05/07 05:26:08;;;;;;;7.37;6.18;;;;;;;14.73;77.20;99167.88;4484727;31;20096;-71
2022/05/07 05:28:38;;;;;;;8.00;5.97;;;;;;;14.80;76.92;99162.84;4484750;31;20088;-71
2022/05/07 05:31:06;;;;;;;8.60;5.80;;;;;;;14.93;76.55;99167.69;4484622;31;20131;-71
2022/05/07 05:33:34;;;;;;;6.12;5.45;;;;;;;15.00;76.40;99164.28;4484598;31;20084;-71
2022/05/07 05:36:04;;;;;;;8.43;6.55;;;;;;;15.03;75.85;99177.19;4484568;31;20115;-71
2022/05/07 05:38:32;;;;;;;11.63;5.78;;;;;;;15.10;75.89;99179.19;4484445;31;20111;-71
2022/05/07 05:40:59;;;;;;;7.53;6.28;;;;;;;15.11;75.77;99175.53;4482962;32;20156;-71
2022/05/07 05:43:27;;;;;;;9.75;6.93;;;;;;;15.15;75.77;99172.44;4484278;31;20161;-71
2022/05/07 05:45:54;;;;;;;8.75;5.93;;;;;;;15.23;75.19;99169.00;4482720;32;20100;-71
2022/05/07 05:48:24;;;;;;;11.18;6.53;;;;;;;15.20;74.86;99169.31;4485000;31;20382;-71
2022/05/07 05:50:51;;;;;;;11.68;6.53;;;;;;;15.17;75.22;99177.56;4486377;31;20100;-71
2022/05/07 05:53:19;;;;;;;10.82;6.47;;;;;;;15.31;75.18;99171.72;4486395;31;20084;-71
2022/05/07 05:55:48;;;;;;;10.15;7.03;;;;;;;15.38;75.15;99183.31;4486321;31;20100;-71
2022/05/07 05:58:19;;;;;;;13.80;7.00;;;;;;;15.49;74.76;99176.06;4486331;31;20076;-71
2022/05/07 06:00:46;;;;;;;10.35;6.47;;;;;;;15.52;74.05;99179.22;4486237;32;20093;-71
2022/05/07 06:03:15;;;;;;;10.18;6.10;;;;;;;15.67;74.19;99175.97;4485948;31;20092;-71
2022/05/07 06:05:43;;;;;;;9.00;6.10;;;;;;;15.65;73.87;99176.13;4486406;32;20087;-71
2022/05/07 06:08:12;;;;;;;6.80;6.00;;;;;;;15.74;73.87;99188.38;4486329;32;20124;-71
2022/05/07 06:10:40;;;;;;;9.45;6.43;;;;;;;15.79;72.48;99170.28;4485916;31;20092;-71
2022/05/07 06:13:08;;;;;;;8.43;5.70;;;;;;;15.87;72.81;99171.28;4486185;31;20089;-71
2022/05/07 06:15:39;;;;;;;11.90;6.70;;;;;;;15.93;72.42;99173.28;4486165;31;20092;-71
2022/05/07 06:18:07;;;;;;;7.87;6.00;;;;;;;15.99;72.48;99164.72;4484538;32;20093;-71
2022/05/07 06:20:35;;;;;;;8.50;6.95;;;;;;;16.21;71.81;99173.00;4485902;31;20127;-71
2022/05/07 06:23:02;;;;;;;11.63;6.03;;;;;;;16.27;71.68;99177.63;4486126;32;20112;-71
2022/05/07 06:28:19;;;;;;;8.40;6.35;;;;;;;15.99;72.35;99180.56;4486157;31;20584;-71
2022/05/07 06:30:46;;;;;;;8.00;5.93;;;;;;;16.01;72.32;99172.47;4486118;31;20097;-71
2022/05/07 06:33:14;;;;;;;13.10;6.62;;;;;;;16.23;71.26;99184.22;4486171;31;20111;-71
2022/05/07 06:35:43;;;;;;;10.35;6.68;;;;;;;16.44;70.97;99179.31;4485972;31;20418;-71
2022/05/07 06:38:12;;;;;;;11.23;6.28;;;;;;;16.41;70.92;99174.34;4485964;31;20080;-71
2022/05/07 06:40:39;;;;;;;11.70;6.28;;;;;;;16.47;70.21;99181.62;4485999;31;20577;-71
2022/05/07 06:43:06;;;;;;;8.00;6.10;;;;;;;16.64;70.77;99182.44;4485806;31;20096;-71
2022/05/07 06:45:38;;;;;;;9.73;5.90;;;;;;;16.84;69.83;99185.56;4485840;31;20114;-71
2022/05/07 06:48:09;;;;;;;8.23;5.90;;;;;;;16.73;70.53;99183.28;4485780;31;20088;-71
2022/05/07 06:50:36;;;;;;;11.73;6.35;;;;;;;16.88;69.79;99185.25;4485710;31;20096;-71
2022/05/07 06:53:04;;;;;;;13.25;5.95;;;;;;;16.74;69.26;99184.09;4485876;31;20080;-71
2022/05/07 06:55:32;;;;;;;8.65;6.15;;;;;;;16.94;69.72;99181.94;4485869;31;20115;-71
2022/05/07 06:58:00;;;;;;;9.88;5.87;;;;;;;17.00;69.29;99178.63;4485754;32;20100;-71
2022/05/07 07:00:47;;;;;;;13.62;6.78;;;;;;;16.98;69.49;99180.63;4484887;31;20089;-71
2022/05/07 07:03:14;;;;;;;8.50;5.95;;;;;;;17.03;69.21;99183.56;4485612;31;20089;-71
2022/05/07 07:05:43;;;;;;;7.05;5.57;;;;;;;17.39;69.52;99180.50;4485920;31;20096;-71
2022/05/07 07:08:13;;;;;;;10.70;5.57;;;;;;;17.36;68.65;99189.59;4485618;31;20107;-71
2022/05/07 07:10:43;;;;;;;7.22;5.82;;;;;;;17.17;67.71;99188.19;4485522;31;20237;-71
2022/05/07 07:13:11;;;;;;;10.55;6.35;;;;;;;17.27;68.03;99189.81;4485893;31;20132;-71
2022/05/07 07:15:41;;;;;;;7.32;6.07;;;;;;;17.33;68.34;99189.12;4485465;31;20095;-71
2022/05/07 07:18:09;;;;;;;16.70;6.43;;;;;;;17.51;68.09;99187.06;4485428;31;20104;-71
2022/05/07 07:20:38;;;;;;;8.43;5.55;;;;;;;17.66;66.14;99184.53;4485403;32;20479;-71
2022/05/07 07:23:06;;;;;;;9.07;5.68;;;;;;;17.47;66.62;99195.53;4485749;32;20678;-71
2022/05/07 07:25:33;;;;;;;9.93;5.62;;;;;;;17.41;66.66;99191.78;4485682;31;20135;-71
2022/05/07 07:28:00;;;;;;;8.27;6.15;;;;;;;17.73;66.56;99190.81;4485592;31;20435;-71
2022/05/07 07:30:27;;;;;;;10.73;6.40;;;;;;;17.79;65.51;99188.44;4485440;31;20104;-71
2022/05/07 07:32:55;;;;;;;8.55;6.18;;;;;;;17.69;66.57;99193.97;4485492;31;20096;-71
2022/05/07 07:35:22;;;;;;;10.30;5.97;;;;;;;17.71;65.69;99197.25;4485333;31;20119;-71
2022/05/07 07:37:49;;;;;;;10.23;6.22;;;;;;;17.59;66.23;99193.34;4485512;31;20115;-71
2022/05/07 07:40:17;;;;;;;9.80;5.55;;;;;;;17.70;66.45;99195.63;4485116;31;20148;-71
2022/05/07 07:42:44;;;;;;;9.40;5.50;;;;;;;17.80;64.82;99198.88;4485460;31;20097;-71
2022/05/07 07:48:03;;;;;;;8.13;5.25;;;;;;;17.90;64.41;99198.69;4485130;31;20088;-71
2022/05/07 07:50:31;;;;;;;7.70;5.65;;;;;;;17.93;64.96;99203.66;4485437;31;20108;-71
2022/05/07 07:53:07;;;;;;;8.80;6.30;;;;;;;17.97;64.56;99202.31;4485308;32;20111;-71
2022/05/07 07:55:36;;;;;;;8.10;6.30;;;;;;;17.89;64.91;99205.81;4485348;31;20079;-71
2022/05/07 07:58:05;;;;;;;10.50;5.78;;;;;;;17.80;66.16;99206.81;4485334;32;20114;-71
2022/05/07 08:00:35;;;;;;;12.50;5.97;;;;;;;18.07;64.68;99207.38;4485157;31;20088;-71
2022/05/07 08:03:13;;;;;;;10.18;5.70;;;;;;;18.12;64.85;99194.41;4484931;31;20093;-71
2022/05/07 08:05:42;;;;;;;16.33;6.18;;;;;;;18.25;63.75;99199.97;4485064;31;20084;-71
2022/05/07 08:13:44;;;;;;;11.50;6.25;;;;;;;18.74;62.65;99208.56;4485215;31;20097;-71
2022/05/07 08:16:12;;;;;;;11.27;6.53;;;;;;;18.82;62.60;99211.16;4484720;31;20104;-71
2022/05/07 08:18:41;;;;;;;13.32;5.97;;;;;;;18.69;63.47;99208.28;4484814;31;20445;-71
2022/05/07 08:21:09;;;;;;;9.00;6.30;;;;;;;18.98;62.34;99210.19;4485400;32;20097;-71
2022/05/07 08:23:37;;;;;;;13.02;5.57;;;;;;;19.18;62.36;99221.13;4485343;31;20442;-71
2022/05/07 08:26:06;;;;;;;11.65;6.37;;;;;;;19.44;59.35;99214.53;4485352;31;20089;-71
2022/05/07 08:28:35;;;;;;;7.45;6.07;;;;;;;19.44;59.07;99217.19;4485377;32;20495;-71
2022/05/07 08:31:03;;;;;;;7.97;6.25;;;;;;;19.42;59.45;99216.56;4484944;31;20367;-71
2022/05/07 08:33:33;;;;;;;7.05;5.68;;;;;;;19.83;59.40;99208.13;4483811;32;20127;-71
2022/05/07 08:36:01;;;;;;;8.93;5.95;;;;;;;19.91;58.62;99213.34;4485073;31;20230;-71
2022/05/07 08:38:28;;;;;;;10.23;6.30;;;;;;;19.92;58.46;99208.84;4484771;31;20514;-71
2022/05/07 08:40:56;;;;;;;9.13;6.03;;;;;;;19.95;58.62;99211.94;4485013;31;20100;-71
2022/05/07 08:43:23;;;;;;;7.30;5.47;;;;;;;20.01;58.07;99210.38;4484831;32;20100;-71
2022/05/07 08:45:52;;;;;;;7.82;6.55;;;;;;;20.17;57.81;99219.97;4484605;32;20214;-72
2022/05/07 08:48:19;;;;;;;10.18;6.05;;;;;;;20.15;57.06;99216.66;4484870;31;20084;-71
2022/05/07 08:50:53;;;;;;;14.15;5.87;;;;;;;20.10;56.09;99214.56;4484916;32;20123;-71
2022/05/07 08:53:21;;;;;;;6.30;5.03;;;;;;;20.41;55.28;99224.09;4485101;32;20096;-71
2022/05/07 08:55:54;;;;;;;7.60;5.65;;;;;;;20.41;54.97;99215.28;4484705;31;20104;-71
2022/05/07 08:58:22;;;;;;;12.37;6.40;;;;;;;20.41;54.45;99217.94;4484730;32;20089;-71
2022/05/07 09:00:49;;;;;;;7.45;5.35;;;;;;;20.53;56.36;99213.75;4484755;31;20229;-71
2022/05/07 09:03:17;;;;;;;8.15;5.93;;;;;;;20.43;54.11;99218.59;4484663;31;20092;-71
2022/05/07 09:05:45;;;;;;;11.18;5.85;;;;;;;20.55;55.41;99211.75;4484921;31;20156;-71
2022/05/07 09:08:12;;;;;;;11.93;5.53;;;;;;;20.68;55.39;99219.88;4484577;31;20092;-71
2022/05/07 09:10:41;;;;;;;15.05;5.40;;;;;;;20.61;52.56;99213.63;4484744;32;20093;-71
2022/05/07 09:13:14;;;;;;;7.15;5.43;;;;;;;20.92;53.02;99208.00;4484564;31;20181;-71
2022/05/07 09:15:52;;;;;;;10.45;5.68;;;;;;;20.42;53.42;99211.62;4484530;32;20104;-71
2022/05/07 09:18:20;;;;;;;8.10;5.05;;;;;;;20.55;55.62;99217.88;4484108;31;20127;-71
2022/05/07 09:21:16;;;;;;;9.98;5.55;;;;;;;20.67;53.52;99220.06;4484605;31;20554;-71
2022/05/07 09:23:48;;;;;;;8.73;6.05;;;;;;;20.87;53.90;99213.06;4483623;31;20706;-71
2022/05/07 09:26:26;;;;;;;8.93;5.30;;;;;;;20.81;53.44;99213.81;4484497;31;20119;-71
2022/05/07 09:28:54;;;;;;;9.38;5.15;;;;;;;20.59;53.17;99213.03;4483102;32;20613;-71
2022/05/07 09:31:26;;;;;;;8.45;6.00;;;;;;;20.67;51.24;99215.56;4484332;31;20515;-71
2022/05/07 09:36:44;;;;;;;10.65;5.62;;;;;;;20.60;54.08;99197.84;4484307;31;20183;-71
2022/05/07 09:39:14;;;;;;;5.85;4.80;;;;;;;20.76;52.61;99202.09;4484399;31;20464;-71
2022/05/07 09:41:45;;;;;;;12.95;5.28;;;;;;;21.11;52.62;99199.50;4484418;31;20140;-71
2022/05/07 09:44:13;;;;;;;10.25;5.10;;;;;;;21.32;51.16;99201.25;4484302;32;20100;-71
2022/05/07 09:46:40;;;;;;;8.45;5.82;;;;;;;21.18;49.50;99200.34;4483858;31;20127;-71
2022/05/07 09:49:08;;;;;;;8.18;5.00;;;;;;;21.22;49.90;99188.31;4484379;31;20100;-71
2022/05/07 09:51:36;;;;;;;13.48;5.10;;;;;;;21.76;49.57;99192.09;4483839;31;20158;-71
2022/05/07 09:59:37;;;;;;;8.38;4.55;;;;;;;21.93;48.73;99181.88;4483641;31;20088;-71
2022/05/07 10:02:27;;;;;;;7.47;4.40;;;;;;;22.15;48.08;99183.38;4482702;32;20114;-71
2022/05/07 10:05:11;;;;;;;7.20;4.70;;;;;;;22.23;47.37;99176.22;4482612;32;20147;-71
2022/05/07 10:08:17;;;;;;;9.68;4.50;;;;;;;22.48;47.83;99179.13;4484042;31;20114;-71
2022/05/07 10:10:47;;;;;;;8.77;4.87;;;;;;;22.46;45.73;99176.66;4484071;31;20112;-71
2022/05/07 10:13:18;;;;;;;8.80;4.55;;;;;;;22.69;48.29;99180.78;4469412;32;20097;-72
2022/05/07 10:15:46;;;;;;;11.10;5.30;;;;;;;22.73;44.68;99175.88;4483623;32;20176;-72
2022/05/07 10:18:16;;;;;;;10.65;4.55;;;;;;;22.67;44.99;99172.97;4483665;31;20089;-72
2022/05/07 10:20:48;;;;;;;10.00;4.87;;;;;;;22.92;47.12;99176.84;4483630;31;20111;-72
2022/05/07 10:23:28;;;;;;;8.20;4.80;;;;;;;22.61;43.33;99181.00;4483834;31;20097;-71
2022/05/07 10:25:56;;;;;;;4.75;4.32;;;;;;;22.87;47.09;99162.25;4482422;32;20101;-72
2022/05/07 10:28:38;;;;;;;5.32;4.25;;;;;;;23.39;44.14;99172.25;4483520;31;20119;-72
2022/05/07 10:31:22;;;;;;;5.53;3.40;;;;;;;22.99;42.86;99170.47;4483432;31;20843;-72
2022/05/07 10:33:51;;;;;;;9.13;4.05;;;;;;;23.03;41.08;99166.34;4483706;31;20168;-72
2022/05/07 10:36:19;;;;;;;6.22;4.18;;;;;;;23.21;40.21;99167.59;4485872;31;20122;-72
2022/05/07 10:38:47;;;;;;;7.80;4.12;;;;;;;23.07;41.69;99161.41;4485540;31;20146;-71
2022/05/07 10:41:17;;;;;;;8.50;4.10;;;;;;;23.07;45.77;99161.41;4485770;31;20096;-71
2022/05/07 10:43:48;;;;;;;8.23;3.72;;;;;;;23.03;44.12;99169.03;4485733;31;20089;-71
2022/05/07 10:46:19;;;;;;;6.55;4.40;;;;;;;23.32;41.95;99156.25;4485439;31;20084;-71
2022/05/07 10:49:04;;;;;;;4.70;3.45;;;;;;;23.05;41.98;99155.47;4485884;31;20085;-71
2022/05/07 10:51:38;;;;;;;6.07;3.08;;;;;;;23.32;43.46;99155.44;4485665;32;20096;-71
2022/05/07 10:54:24;;;;;;;4.68;3.62;;;;;;;23.20;39.52;99155.25;4485878;32;20131;-72
2022/05/07 10:56:53;;;;;;;7.35;4.30;;;;;;;23.46;41.40;99158.88;4486221;31;20505;-72
2022/05/07 10:59:22;;;;;;;6.00;4.45;;;;;;;23.50;42.62;99168.94;4485803;31;20088;-71
2022/05/07 11:01:49;;;;;;;5.45;4.22;;;;;;;23.53;41.11;99157.00;4485722;31;20149;-72
2022/05/07 11:04:22;;;;;;;7.90;4.07;;;;;;;23.49;41.56;99153.91;4485771;31;20100;-72
2022/05/07 11:06:52;;;;;;;10.13;5.00;;;;;;;22.81;42.89;99146.25;4485635;31;20552;-72
2022/05/07 11:09:20;;;;;;;6.47;3.75;;;;;;;22.35;44.08;99158.59;4485482;32;20167;-71
2022/05/07 11:11:49;;;;;;;5.05;4.10;;;;;;;22.39;43.43;99149.16;4485576;31;20577;-72
2022/05/07 11:14:23;;;;;;;20.50;4.62;;;;;;;22.37;45.54;99151.19;4485573;31;20476;-72
2022/05/07 11:16:58;;;;;;;5.57;4.82;;;;;;;22.40;46.05;99155.31;4485330;31;20147;-72
2022/05/07 11:19:30;;;;;;;6.43;4.43;;;;;;;22.42;45.85;99154.09;4485443;31;20505;-72
2022/05/07 11:22:01;;;;;;;9.93;5.13;;;;;;;22.55;43.94;99139.09;4485821;32;20150;-72
2022/05/07 11:24:31;;;;;;;11.43;3.65;;;;;;;22.57;43.55;99135.16;4485589;31;20481;-72
2022/05/07 11:27:06;;;;;;;7.53;4.00;;;;;;;22.42;42.75;99138.06;4485466;31;20093;-71
2022/05/07 11:29:34;;;;;;;7.47;4.20;;;;;;;22.30;44.35;99145.00;4485433;31;20076;-72
2022/05/07 11:32:07;;;;;;;4.37;3.95;;;;;;;22.26;43.71;99138.44;4485416;31;20161;-71
2022/05/07 11:34:39;;;;;;;6.80;4.72;;;;;;;22.28;43.54;99141.72;4485374;31;20101;-72
2022/05/07 11:37:10;;;;;;;7.50;4.10;;;;;;;22.36;45.19;99141.53;4485567;31;20527;-72
2022/05/07 11:39:50;;;;;;;6.75;4.03;;;;;;;22.75;48.17;99131.06;4485244;31;20088;-72
2022/05/07 11:42:26;;;;;;;11.02;4.15;;;;;;;23.05;44.08;99136.75;4485402;31;20100;-71
2022/05/07 11:45:29;;;;;;;12.57;4.07;;;;;;;23.12;41.62;99132.25;4485087;32;20100;-72
2022/05/07 11:47:59;;;;;;;6.25;3.85;;;;;;;23.04;45.89;99135.94;4484804;31;20126;-72
2022/05/07 11:50:32;;;;;;;4.95;4.30;;;;;;;23.31;44.00;99133.19;4485347;31;20096;-72
2022/05/07 11:53:14;;;;;;;6.85;4.57;;;;;;;22.64;42.19;99127.16;4485301;31;20533;-72
2022/05/07 11:55:42;;;;;;;5.90;3.72;;;;;;;22.97;42.35;99118.28;4485612;31;20088;-71
2022/05/07 11:58:12;;;;;;;13.57;4.37;;;;;;;23.06;43.40;99119.69;4485308;32;20382;-72
2022/05/07 12:00:47;;;;;;;7.50;4.10;;;;;;;23.24;41.28;99120.91;4485153;31;20109;-72
2022/05/07 12:03:19;;;;;;;5.45;4.40;;;;;;;23.05;43.09;99126.06;4485361;31;20434;-72
2022/05/07 12:05:48;;;;;;;9.35;4.62;;;;;;;23.45;41.74;99120.62;4485273;31;20163;-72
2022/05/07 12:08:19;;;;;;;5.43;3.95;;;;;;;23.52;44.06;99115.25;4485276;32;20101;-72
2022/05/07 12:10:51;;;;;;;6.62;3.45;;;;;;;23.55;42.88;99115.63;4485071;31;20080;-72